createdAt,value
2022-09-13T00:01:07.740Z,1.50
2022-09-13T00:03:36.107Z,2.47
2022-09-13T00:06:13.125Z,1.27
2022-09-13T00:08:43.303Z,1.30
2022-09-13T00:11:18.394Z,1.20
2022-09-13T00:13:47.180Z,1.10
2022-09-13T00:16:17.930Z,1.20
2022-09-13T00:18:46.383Z,1.47
2022-09-13T00:21:16.206Z,2.63
2022-09-13T00:23:48.275Z,1.93
2022-09-13T00:26:18.796Z,3.33
2022-09-13T00:28:47.139Z,1.47
2022-09-13T00:31:15.650Z,2.90
2022-09-13T00:33:43.913Z,2.17
2022-09-13T00:36:15.358Z,2.00
2022-09-13T00:38:44.745Z,2.03
2022-09-13T00:41:17.365Z,2.13
2022-09-13T00:43:51.529Z,2.70
2022-09-13T00:46:27.321Z,1.87
2022-09-13T00:48:59.188Z,1.80
2022-09-13T00:51:28.687Z,2.70
2022-09-13T00:53:59.956Z,3.43
2022-09-13T00:56:35.279Z,2.60
2022-09-13T00:59:08.696Z,2.40
2022-09-13T01:01:43.034Z,2.43
2022-09-13T01:04:12.818Z,2.80
2022-09-13T01:06:42.743Z,3.67
2022-09-13T01:09:13.597Z,2.60
2022-09-13T01:11:50.474Z,3.50
2022-09-13T01:14:22.322Z,3.43
2022-09-13T01:16:50.799Z,2.43
2022-09-13T01:19:19.103Z,2.20
2022-09-13T01:22:26.322Z,3.10
2022-09-13T01:25:34.493Z,2.80
2022-09-13T01:28:19.041Z,2.80
2022-09-13T01:30:55.593Z,2.30
2022-09-13T01:33:38.365Z,3.00
2022-09-13T01:36:24.195Z,4.23
2022-09-13T01:39:00.512Z,3.07
2022-09-13T01:41:47.662Z,4.20
2022-09-13T01:44:28.827Z,4.03
2022-09-13T01:47:05.614Z,5.00
2022-09-13T01:49:44.353Z,3.67
2022-09-13T01:52:23.248Z,8.13
2022-09-13T01:54:58.581Z,3.07
2022-09-13T01:57:33.296Z,4.80
2022-09-13T02:00:07.478Z,2.90
2022-09-13T02:02:43.121Z,5.30
2022-09-13T02:05:15.741Z,3.10
2022-09-13T02:07:47.152Z,3.27
2022-09-13T02:10:22.199Z,3.13
2022-09-13T02:12:54.457Z,3.13
2022-09-13T02:15:26.281Z,2.73
2022-09-13T02:18:03.324Z,3.13
2022-09-13T02:20:35.065Z,2.93
2022-09-13T02:23:06.918Z,3.03
2022-09-13T02:25:38.457Z,3.13
2022-09-13T02:28:11.676Z,4.53
2022-09-13T02:30:42.794Z,4.30
2022-09-13T02:33:17.094Z,5.07
2022-09-13T02:35:52.319Z,3.27
2022-09-13T02:38:24.332Z,4.00
2022-09-13T02:40:58.527Z,2.70
2022-09-13T02:43:31.621Z,4.53
2022-09-13T02:46:12.566Z,3.80
2022-09-13T02:48:51.280Z,2.83
2022-09-13T02:51:26.648Z,4.03
2022-09-13T02:54:01.904Z,3.60
2022-09-13T02:56:37.280Z,4.07
2022-09-13T02:59:12.173Z,2.37
2022-09-13T03:01:42.647Z,2.07
2022-09-13T03:04:12.497Z,3.17
2022-09-13T03:06:42.029Z,2.53
2022-09-13T03:09:11.179Z,2.87
2022-09-13T03:11:57.464Z,2.80
2022-09-13T03:14:37.916Z,2.47
2022-09-13T03:17:15.869Z,3.57
2022-09-13T03:20:07.209Z,2.60
2022-09-13T03:25:26.473Z,2.53
2022-09-13T03:28:04.108Z,2.47
2022-09-13T03:30:34.990Z,3.30
2022-09-13T03:33:09.239Z,3.90
2022-09-13T03:35:44.066Z,2.50
2022-09-13T03:38:16.889Z,3.00
2022-09-13T03:40:49.842Z,2.83
2022-09-13T03:43:23.928Z,2.83
2022-09-13T03:45:59.674Z,3.97
2022-09-13T03:48:29.276Z,2.97
2022-09-13T03:50:59.012Z,2.37
2022-09-13T03:53:29.825Z,2.93
2022-09-13T03:55:58.220Z,3.60
2022-09-13T03:58:28.654Z,3.20
2022-09-13T04:00:57.853Z,3.73
2022-09-13T04:03:25.984Z,3.00
2022-09-13T04:05:54.265Z,2.80
2022-09-13T04:08:23.839Z,2.93
2022-09-13T04:10:53.189Z,5.40
2022-09-13T04:13:22.548Z,3.97
2022-09-13T04:15:51.143Z,3.87
2022-09-13T04:18:19.535Z,5.13
2022-09-13T04:20:55.493Z,2.83
2022-09-13T04:23:25.529Z,4.90
2022-09-13T04:25:53.876Z,3.50
2022-09-13T04:28:23.592Z,3.13
2022-09-13T04:30:51.781Z,5.27
2022-09-13T04:33:19.925Z,4.20
2022-09-13T04:35:48.269Z,3.37
2022-09-13T04:38:16.969Z,2.90
2022-09-13T04:40:53.611Z,2.70
2022-09-13T04:43:21.758Z,4.07
2022-09-13T04:45:50.225Z,4.33
2022-09-13T04:48:18.430Z,3.63
2022-09-13T04:50:47.649Z,4.40
2022-09-13T04:53:15.760Z,2.60
2022-09-13T04:55:43.987Z,5.17
2022-09-13T04:58:13.494Z,2.63
2022-09-13T05:00:41.693Z,2.60
2022-09-13T05:03:09.909Z,4.17
2022-09-13T05:05:38.207Z,3.30
2022-09-13T05:08:06.640Z,2.60
2022-09-13T05:10:35.446Z,5.63
2022-09-13T05:13:03.987Z,2.97
2022-09-13T05:15:33.537Z,2.23
2022-09-13T05:18:01.820Z,4.53
2022-09-13T05:20:30.793Z,2.77
2022-09-13T05:25:36.935Z,3.03
2022-09-13T05:28:05.238Z,3.60
2022-09-13T05:30:37.459Z,2.83
2022-09-13T05:33:07.402Z,2.07
2022-09-13T05:35:35.656Z,2.83
2022-09-13T05:38:03.762Z,2.87
2022-09-13T05:40:31.996Z,2.00
2022-09-13T05:43:00.113Z,2.43
2022-09-13T05:45:28.278Z,3.80
2022-09-13T05:47:59.920Z,2.00
2022-09-13T05:50:56.937Z,2.57
2022-09-13T05:53:16.264Z,3.70
2022-09-13T05:55:44.407Z,4.17
2022-09-13T05:58:12.512Z,3.50
2022-09-13T06:00:40.743Z,3.23
2022-09-13T06:03:10.995Z,2.67
2022-09-13T06:05:39.135Z,2.67
2022-09-13T06:08:08.252Z,3.07
2022-09-13T06:10:36.436Z,2.90
2022-09-13T06:13:04.625Z,3.17
2022-09-13T06:15:32.779Z,3.43
2022-09-13T06:18:00.935Z,2.80
2022-09-13T06:20:31.068Z,2.90
2022-09-13T06:22:59.239Z,4.90
2022-09-13T06:25:27.437Z,3.23
2022-09-13T06:27:55.591Z,3.07
2022-09-13T06:30:23.784Z,2.10
2022-09-13T06:32:51.965Z,2.30
2022-09-13T06:35:20.128Z,3.07
2022-09-13T06:37:49.773Z,4.37
2022-09-13T06:40:21.864Z,2.47
2022-09-13T06:42:53.331Z,4.23
2022-09-13T06:45:21.760Z,2.47
2022-09-13T06:47:49.895Z,1.83
2022-09-13T06:50:18.327Z,5.23
2022-09-13T06:52:46.506Z,2.20
2022-09-13T06:55:16.112Z,2.50
2022-09-13T06:57:44.329Z,2.67
2022-09-13T07:00:13.984Z,2.20
2022-09-13T07:02:42.096Z,3.60
2022-09-13T07:05:11.120Z,3.13
2022-09-13T07:07:39.249Z,1.70
2022-09-13T07:10:08.404Z,5.20
2022-09-13T07:12:37.982Z,5.97
2022-09-13T07:15:06.765Z,3.77
2022-09-13T07:17:34.933Z,4.60
2022-09-13T07:20:03.458Z,4.47
2022-09-13T07:22:31.819Z,4.60
2022-09-13T07:25:01.105Z,6.90
2022-09-13T07:27:29.396Z,4.37
2022-09-13T07:29:58.832Z,3.03
2022-09-13T07:32:26.959Z,2.03
2022-09-13T07:34:55.039Z,2.93
2022-09-13T07:37:23.224Z,2.60
2022-09-13T07:39:51.356Z,2.37
2022-09-13T07:42:19.461Z,2.80
2022-09-13T07:44:47.563Z,2.23
2022-09-13T07:47:17.077Z,2.17
2022-09-13T07:49:45.201Z,3.10
2022-09-13T07:52:13.505Z,4.47
2022-09-13T07:54:41.603Z,3.90
2022-09-13T07:57:09.697Z,3.53
2022-09-13T07:59:38.859Z,6.87
2022-09-13T08:02:07.258Z,2.40
2022-09-13T08:04:37.154Z,4.50
2022-09-13T08:07:05.451Z,3.67
2022-09-13T08:09:33.710Z,3.97
2022-09-13T08:12:08.718Z,3.27
2022-09-13T08:14:37.115Z,4.40
2022-09-13T08:17:05.347Z,3.20
2022-09-13T08:19:33.633Z,6.57
2022-09-13T08:22:03.419Z,2.83
2022-09-13T08:24:31.570Z,4.00
2022-09-13T08:27:00.011Z,1.50
2022-09-13T08:29:28.140Z,1.93
2022-09-13T08:31:56.397Z,2.07
2022-09-13T08:34:24.581Z,4.63
2022-09-13T08:36:53.818Z,5.73
2022-09-13T08:39:23.606Z,2.40
2022-09-13T08:42:04.945Z,2.10
2022-09-13T08:44:36.196Z,3.13
2022-09-13T08:47:23.797Z,2.27
2022-09-13T08:49:57.065Z,2.33
2022-09-13T08:52:31.766Z,6.40
2022-09-13T08:55:08.127Z,2.97
2022-09-13T08:57:45.447Z,2.03
2022-09-13T09:00:21.284Z,2.33
2022-09-13T09:03:00.646Z,4.40
2022-09-13T09:05:31.733Z,1.87
2022-09-13T09:08:03.060Z,2.70
2022-09-13T09:10:35.393Z,4.47
2022-09-13T09:13:08.678Z,3.10
2022-09-13T09:15:42.147Z,2.03
2022-09-13T09:18:15.451Z,2.20
2022-09-13T09:20:46.219Z,1.20
2022-09-13T09:23:21.338Z,3.00
2022-09-13T09:25:54.018Z,3.50
2022-09-13T09:28:22.420Z,3.43
2022-09-13T09:30:58.778Z,2.93
2022-09-13T09:33:37.360Z,2.03
2022-09-13T09:36:14.661Z,3.13
2022-09-13T09:38:44.768Z,1.93
2022-09-13T09:41:27.124Z,2.37
2022-09-13T09:44:00.994Z,2.13
2022-09-13T09:46:33.727Z,1.93
2022-09-13T09:49:32.503Z,2.33
2022-09-13T09:52:06.629Z,1.60
2022-09-13T09:54:36.271Z,3.20
2022-09-13T09:57:07.058Z,0.70
2022-09-13T09:59:36.137Z,0.87
2022-09-13T10:02:16.349Z,1.73
2022-09-13T10:04:54.667Z,2.40
2022-09-13T10:07:28.970Z,2.77
2022-09-13T10:10:05.985Z,1.80
2022-09-13T10:12:39.167Z,0.87
2022-09-13T10:15:17.489Z,1.63
2022-09-13T10:18:02.196Z,1.10
2022-09-13T10:20:31.578Z,0.87
2022-09-13T10:23:20.273Z,2.20
2022-09-13T10:26:00.946Z,0.90
2022-09-13T10:28:32.145Z,1.30
2022-09-13T10:31:05.095Z,2.67
2022-09-13T10:33:37.605Z,2.10
2022-09-13T10:36:09.212Z,4.80
2022-09-13T10:38:45.405Z,2.33
2022-09-13T10:41:24.076Z,3.50
2022-09-13T10:43:59.009Z,1.37
2022-09-13T10:46:31.138Z,1.57
2022-09-13T10:49:00.022Z,3.23
2022-09-13T10:51:36.931Z,2.43
2022-09-13T10:54:21.403Z,1.10
2022-09-13T10:56:50.878Z,3.20
2022-09-13T10:59:24.061Z,1.53
2022-09-13T11:05:32.751Z,3.63
2022-09-13T11:08:36.510Z,3.27
2022-09-13T11:11:18.173Z,2.43
2022-09-13T11:14:04.286Z,1.63
2022-09-13T11:16:47.637Z,1.67
2022-09-13T11:19:38.937Z,1.30
2022-09-13T11:22:23.600Z,0.87
2022-09-13T11:25:04.361Z,1.30
2022-09-13T11:27:43.703Z,3.13
2022-09-13T11:30:16.954Z,1.73
2022-09-13T11:33:05.357Z,2.53
2022-09-13T11:35:48.301Z,1.73
2022-09-13T11:38:37.645Z,2.07
2022-09-13T11:41:15.009Z,1.27
2022-09-13T11:43:56.355Z,2.00
2022-09-13T11:46:32.611Z,1.73
2022-09-13T11:49:29.651Z,1.80
2022-09-13T11:52:15.853Z,1.27
2022-09-13T11:55:04.203Z,2.07
2022-09-13T11:57:36.459Z,1.50
2022-09-13T12:00:09.855Z,4.73
2022-09-13T12:02:43.820Z,1.87
2022-09-13T12:05:22.455Z,3.47
2022-09-13T12:07:56.696Z,3.17
2022-09-13T12:10:29.353Z,3.17
2022-09-13T12:13:01.603Z,3.03
2022-09-13T12:15:38.054Z,4.87
2022-09-13T12:18:13.797Z,3.30
2022-09-13T12:20:48.639Z,2.47
2022-09-13T12:23:22.103Z,1.67
2022-09-13T12:25:55.513Z,3.37
2022-09-13T12:28:27.441Z,1.50
2022-09-13T12:30:58.855Z,4.43
2022-09-13T12:33:27.334Z,0.90
2022-09-13T12:36:20.902Z,1.30
2022-09-13T12:39:24.981Z,1.13
2022-09-13T12:42:10.330Z,2.00
2022-09-13T12:45:05.793Z,1.90
2022-09-13T12:48:08.997Z,0.80
2022-09-13T12:50:52.449Z,1.20
2022-09-13T12:53:48.668Z,1.17
2022-09-13T12:56:32.421Z,2.10
2022-09-13T12:59:35.874Z,4.37
2022-09-13T13:02:07.401Z,3.37
2022-09-13T13:04:37.985Z,2.03
2022-09-13T13:07:09.568Z,2.60
2022-09-13T13:09:43.110Z,3.00
2022-09-13T13:12:12.825Z,4.77
2022-09-13T13:14:53.294Z,2.47
2022-09-13T13:17:52.486Z,1.80
2022-09-13T13:20:42.929Z,1.70
2022-09-13T13:23:33.390Z,3.70
2022-09-13T13:26:09.905Z,3.00
2022-09-13T13:29:10.159Z,2.30
2022-09-13T13:31:41.396Z,2.77
2022-09-13T13:34:32.713Z,3.30
2022-09-13T13:37:04.306Z,0.70
2022-09-13T13:39:39.983Z,0.80
2022-09-13T13:42:27.128Z,5.37
2022-09-13T13:45:32.026Z,1.63
2022-09-13T13:48:11.950Z,2.00
2022-09-13T13:51:18.379Z,2.00
2022-09-13T13:53:54.667Z,3.00
2022-09-13T13:56:47.832Z,4.53
2022-09-13T13:59:24.570Z,4.27
2022-09-13T14:01:59.346Z,2.63
2022-09-13T14:04:55.413Z,1.70
2022-09-13T14:07:43.922Z,3.23
2022-09-13T14:10:18.665Z,1.90
2022-09-13T14:13:03.305Z,1.10
2022-09-13T14:15:48.634Z,2.13
2022-09-13T14:18:35.667Z,2.47
2022-09-13T14:21:06.085Z,1.70
2022-09-13T14:23:35.368Z,2.30
2022-09-13T14:26:07.043Z,0.77
2022-09-13T14:28:36.139Z,1.57
2022-09-13T14:31:06.002Z,1.07
2022-09-13T14:33:36.489Z,4.23
2022-09-13T14:36:07.745Z,6.67
2022-09-13T14:38:37.619Z,2.77
2022-09-13T14:41:15.455Z,3.40
2022-09-13T14:43:44.551Z,7.30
2022-09-13T14:46:20.306Z,4.90
2022-09-13T14:48:51.792Z,6.60
2022-09-13T14:51:26.161Z,2.80
2022-09-13T14:53:57.437Z,3.67
2022-09-13T14:56:34.131Z,1.37
2022-09-13T14:59:06.713Z,1.07
2022-09-13T15:01:37.375Z,1.23
2022-09-13T15:04:07.468Z,1.90
2022-09-13T15:06:39.181Z,3.10
2022-09-13T15:09:27.313Z,5.47
2022-09-13T15:12:01.140Z,3.57
2022-09-13T15:14:31.322Z,3.47
2022-09-13T15:17:10.166Z,1.20
2022-09-13T15:19:40.897Z,4.60
2022-09-13T15:22:24.890Z,2.33
2022-09-13T15:24:54.846Z,1.00
2022-09-13T15:27:28.368Z,1.37
2022-09-13T15:29:59.278Z,1.47
2022-09-13T15:32:34.742Z,2.27
2022-09-13T15:35:03.895Z,2.13
2022-09-13T15:37:37.793Z,2.60
2022-09-13T15:40:31.126Z,2.10
2022-09-13T15:43:00.605Z,1.50
2022-09-13T15:45:28.814Z,0.70
2022-09-13T15:47:58.326Z,1.93
2022-09-13T15:50:30.900Z,1.60
2022-09-13T15:53:00.323Z,1.63
2022-09-13T15:55:29.811Z,2.50
2022-09-13T15:57:57.937Z,3.50
2022-09-13T16:00:28.414Z,1.03
2022-09-13T16:02:58.020Z,1.43
2022-09-13T16:05:26.205Z,1.17
2022-09-13T16:07:58.922Z,2.60
2022-09-13T16:10:27.165Z,1.63
2022-09-13T16:12:55.595Z,1.47
2022-09-13T16:15:23.881Z,1.33
2022-09-13T16:17:52.038Z,0.80
2022-09-13T16:20:21.606Z,1.20
2022-09-13T16:22:49.839Z,2.07
2022-09-13T16:25:18.049Z,0.83
2022-09-13T16:27:47.048Z,1.10
2022-09-13T16:30:16.599Z,0.70
2022-09-13T16:32:45.421Z,1.67
2022-09-13T16:35:15.922Z,0.90
2022-09-13T16:37:48.069Z,2.07
2022-09-13T16:40:16.318Z,0.80
2022-09-13T16:42:44.522Z,1.10
2022-09-13T16:45:13.252Z,1.57
2022-09-13T16:47:42.379Z,1.10
2022-09-13T16:50:11.418Z,2.07
2022-09-13T16:52:39.754Z,3.17
2022-09-13T16:55:09.962Z,2.27
2022-09-13T16:57:38.435Z,2.67
2022-09-13T17:00:11.104Z,1.43
2022-09-13T17:02:39.660Z,1.87
2022-09-13T17:05:08.575Z,4.17
2022-09-13T17:07:37.113Z,3.60
2022-09-13T17:10:07.127Z,2.43
2022-09-13T17:15:27.498Z,2.07
2022-09-13T17:17:55.579Z,3.17
2022-09-13T17:20:23.764Z,2.97
2022-09-13T17:22:51.953Z,2.27
2022-09-13T17:25:21.113Z,2.47
2022-09-13T17:27:49.331Z,6.83
2022-09-13T17:30:17.622Z,1.93
2022-09-13T17:32:47.274Z,3.87
2022-09-13T17:35:16.498Z,2.43
2022-09-13T17:37:44.616Z,2.90
2022-09-13T17:40:12.894Z,3.13
2022-09-13T17:42:42.187Z,3.27
2022-09-13T17:45:11.250Z,2.60
2022-09-13T17:47:39.305Z,2.87
2022-09-13T17:50:10.097Z,2.47
2022-09-13T17:52:38.266Z,2.07
2022-09-13T17:55:07.191Z,2.90
2022-09-13T17:57:35.807Z,2.57
2022-09-13T18:00:05.577Z,2.50
2022-09-13T18:02:34.040Z,3.30
2022-09-13T18:05:05.709Z,1.60
2022-09-13T18:07:37.356Z,4.13
2022-09-13T18:10:16.072Z,6.10
2022-09-13T18:15:33.315Z,4.40
2022-09-13T18:18:01.499Z,4.27
2022-09-13T18:20:29.736Z,5.03
2022-09-13T18:22:59.741Z,6.47
2022-09-13T18:25:27.896Z,6.40
2022-09-13T18:27:56.135Z,8.27
2022-09-13T18:30:24.217Z,5.67
2022-09-13T18:32:52.326Z,4.60
2022-09-13T18:35:20.432Z,3.00
2022-09-13T18:37:48.634Z,4.13
2022-09-13T18:40:18.428Z,4.77
2022-09-13T18:42:46.668Z,3.77
2022-09-13T18:45:14.953Z,3.30
2022-09-13T18:47:45.099Z,3.10
2022-09-13T18:50:19.238Z,2.83
2022-09-13T18:52:48.169Z,1.30
2022-09-13T18:55:17.961Z,3.37
2022-09-13T18:57:46.392Z,1.53
2022-09-13T19:00:14.889Z,1.67
2022-09-13T19:03:02.026Z,2.77
2022-09-13T19:05:31.974Z,4.97
2022-09-13T19:08:01.183Z,4.77
2022-09-13T19:10:32.466Z,2.57
2022-09-13T19:13:00.602Z,5.37
2022-09-13T19:15:28.903Z,4.30
2022-09-13T19:17:57.247Z,3.87
2022-09-13T19:20:25.408Z,6.20
2022-09-13T19:22:53.810Z,3.10
2022-09-13T19:25:27.704Z,3.10
2022-09-13T19:27:57.809Z,2.70
2022-09-13T19:30:26.006Z,2.67
2022-09-13T19:32:54.182Z,3.80
2022-09-13T19:35:22.328Z,2.60
2022-09-13T19:37:50.529Z,3.90
2022-09-13T19:40:18.803Z,3.30
2022-09-13T19:42:47.148Z,4.23
2022-09-13T19:45:16.736Z,6.93
2022-09-13T19:50:32.996Z,3.87
2022-09-13T19:53:01.197Z,4.53
2022-09-13T19:55:29.378Z,3.47
2022-09-13T19:57:58.107Z,3.53
2022-09-13T20:00:27.851Z,4.30
2022-09-13T20:02:56.094Z,5.23
2022-09-13T20:05:28.029Z,1.87
2022-09-13T20:07:56.519Z,2.50
2022-09-13T20:10:24.703Z,4.10
2022-09-13T20:12:54.527Z,4.40
2022-09-13T20:15:22.843Z,2.77
2022-09-13T20:17:52.654Z,5.37
2022-09-13T20:20:20.893Z,6.20
2022-09-13T20:22:49.059Z,3.53
2022-09-13T20:25:18.557Z,4.50
2022-09-13T20:27:46.807Z,4.20
2022-09-13T20:30:15.424Z,5.27
2022-09-13T20:32:44.135Z,5.00
2022-09-13T20:35:13.664Z,3.80
2022-09-13T20:37:41.802Z,3.87
2022-09-13T20:40:11.058Z,2.83
2022-09-13T20:42:39.820Z,3.07
2022-09-13T20:45:09.065Z,3.33
2022-09-13T20:47:37.326Z,5.60
2022-09-13T20:50:07.790Z,2.57
2022-09-13T20:52:37.614Z,4.90
2022-09-13T20:55:06.558Z,3.07
2022-09-13T20:57:34.772Z,6.30
2022-09-13T21:00:04.551Z,3.50
2022-09-13T21:02:33.092Z,3.47
2022-09-13T21:05:01.654Z,5.07
2022-09-13T21:07:48.393Z,3.10
2022-09-13T21:10:18.519Z,4.00
2022-09-13T21:12:50.309Z,4.77
2022-09-13T21:15:18.733Z,6.33
2022-09-13T21:17:47.600Z,3.53
2022-09-13T21:20:16.112Z,4.63
2022-09-13T21:22:44.260Z,3.77
2022-09-13T21:25:12.407Z,3.10
2022-09-13T21:27:41.910Z,2.90
2022-09-13T21:30:10.599Z,2.60
2022-09-13T21:32:38.753Z,3.20
2022-09-13T21:35:07.595Z,2.83
2022-09-13T21:37:35.744Z,4.40
2022-09-13T21:40:04.206Z,3.47
2022-09-13T21:42:33.125Z,5.90
2022-09-13T21:45:02.604Z,4.43
2022-09-13T21:47:30.787Z,5.70
2022-09-13T21:49:58.918Z,5.03
2022-09-13T21:52:27.919Z,5.43
2022-09-13T21:54:55.996Z,5.93
2022-09-13T21:57:24.192Z,5.60
2022-09-13T21:59:52.280Z,6.40
2022-09-13T22:02:21.882Z,5.50
2022-09-13T22:04:50.071Z,4.63
2022-09-13T22:07:18.277Z,4.90
2022-09-13T22:09:46.455Z,6.10
2022-09-13T22:12:14.635Z,6.37
2022-09-13T22:14:42.811Z,4.50
2022-09-13T22:17:10.986Z,4.30
2022-09-13T22:19:40.659Z,4.10
2022-09-13T22:22:08.768Z,4.50
2022-09-13T22:24:36.942Z,4.20
2022-09-13T22:27:07.170Z,4.50
2022-09-13T22:29:35.745Z,4.87
2022-09-13T22:32:04.487Z,7.00
2022-09-13T22:34:34.941Z,5.07
2022-09-13T22:37:04.459Z,5.47
2022-09-13T22:39:32.930Z,5.80
2022-09-13T22:42:01.044Z,5.63
2022-09-13T22:44:29.151Z,6.93
2022-09-13T22:47:00.353Z,8.43
2022-09-13T22:49:28.602Z,6.30
2022-09-13T22:51:56.764Z,7.37
2022-09-13T22:54:28.537Z,7.97
2022-09-13T22:56:56.755Z,7.60
2022-09-13T22:59:24.969Z,6.90
2022-09-13T23:01:53.177Z,6.47
2022-09-13T23:04:21.550Z,7.57
2022-09-13T23:06:49.773Z,6.97
2022-09-13T23:09:19.601Z,7.30
2022-09-13T23:11:49.507Z,8.63
2022-09-13T23:14:19.987Z,9.50
2022-09-13T23:16:51.435Z,7.03
2022-09-13T23:19:21.893Z,7.80
2022-09-13T23:21:50.414Z,7.63
2022-09-13T23:24:20.110Z,7.73
2022-09-13T23:26:49.655Z,7.07
2022-09-13T23:29:19.879Z,7.20
2022-09-13T23:34:34.667Z,8.27
2022-09-13T23:37:02.841Z,7.60
2022-09-13T23:39:31.104Z,7.10
2022-09-13T23:42:01.346Z,7.40
2022-09-13T23:44:29.800Z,8.63
2022-09-13T23:46:57.941Z,8.17
2022-09-13T23:49:26.071Z,7.93
2022-09-13T23:51:54.206Z,7.40
2022-09-13T23:54:22.451Z,9.70
2022-09-13T23:56:50.535Z,7.80
2022-09-13T23:59:20.074Z,9.80
